Time;durP1;ratioP1;P1;durP2;ratioP2;P2;SDS_P1;SDS_P2;PMS_P1;PMS_P2;Temp;Humidity;BMP_temperature;BMP_pressure;BME280_temperature;BME280_humidity;BME280_pressure;Samples;Min_cycle;Max_cycle;Signal;HPM_P1;HPM_P2
2023/05/20 00:01:46;;;;;;;5.73;2.33;;;;;;;;;;5031735;28;20080;-79
2023/05/20 00:04:12;;;;;;;5.03;3.20;;;;;;;;;;5029642;28;20034;-78
2023/05/20 00:06:38;;;;;;;4.70;1.60;;;;;;;;;;5009043;28;20094;-80
2023/05/20 00:09:08;;;;;;;8.87;2.33;;;;;;;;;;5016116;28;20026;-80
2023/05/20 00:11:34;;;;;;;9.57;4.80;;;;;;;;;;5013809;28;20034;-78
2023/05/20 00:14:00;;;;;;;6.13;3.20;;;;;;;;;;5032001;28;20033;-79
2023/05/20 00:16:26;;;;;;;7.73;2.73;;;;;;;;;;5031194;28;20049;-78
2023/05/20 00:18:55;;;;;;;6.73;2.77;;;;;;;;;;5017083;28;20030;-79
2023/05/20 00:21:21;;;;;;;5.40;1.83;;;;;;;;;;5016132;28;20029;-80
2023/05/20 00:23:47;;;;;;;4.70;3.00;;;;;;;;;;5030221;28;20034;-80
2023/05/20 00:26:16;;;;;;;11.70;3.17;;;;;;;;;;5015373;28;20085;-78
2023/05/20 00:28:45;;;;;;;5.03;2.40;;;;;;;;;;5015693;28;20034;-79
2023/05/20 00:31:16;;;;;;;7.73;4.17;;;;;;;;;;5025527;28;20019;-78
2023/05/20 00:33:42;;;;;;;3.93;2.10;;;;;;;;;;5030884;28;20082;-78
2023/05/20 00:36:08;;;;;;;6.80;3.60;;;;;;;;;;5015460;28;20018;-78
2023/05/20 00:38:34;;;;;;;4.60;2.60;;;;;;;;;;5030631;28;20068;-78
2023/05/20 00:41:02;;;;;;;4.20;1.50;;;;;;;;;;5028857;28;20030;-79
2023/05/20 00:43:31;;;;;;;3.53;2.00;;;;;;;;;;5030351;28;20023;-78
2023/05/20 00:45:57;;;;;;;5.13;1.70;;;;;;;;;;5027959;28;20038;-78
2023/05/20 00:48:23;;;;;;;5.30;3.27;;;;;;;;;;5013127;28;20025;-80
2023/05/20 00:50:50;;;;;;;5.80;3.10;;;;;;;;;;5029824;28;20064;-81
2023/05/20 00:53:17;;;;;;;5.90;2.33;;;;;;;;;;5012855;28;20022;-77
2023/05/20 00:55:46;;;;;;;7.20;3.70;;;;;;;;;;5020365;28;20022;-80
2023/05/20 00:58:15;;;;;;;5.67;2.33;;;;;;;;;;5012536;28;20042;-79
2023/05/20 01:00:43;;;;;;;4.03;1.77;;;;;;;;;;5027674;28;20287;-81
2023/05/20 01:03:09;;;;;;;4.53;2.40;;;;;;;;;;5029792;28;20196;-78
2023/05/20 01:05:38;;;;;;;8.57;3.60;;;;;;;;;;5013192;28;20038;-79
2023/05/20 01:08:06;;;;;;;11.90;3.27;;;;;;;;;;5015782;28;20019;-80
2023/05/20 01:10:33;;;;;;;6.60;3.17;;;;;;;;;;5027851;28;20022;-80
2023/05/20 01:13:04;;;;;;;6.40;3.63;;;;;;;;;;5011523;28;20034;-78
2023/05/20 01:15:30;;;;;;;4.03;2.60;;;;;;;;;;5027766;28;20022;-81
2023/05/20 01:18:04;;;;;;;2.70;1.80;;;;;;;;;;5029603;28;20010;-80
2023/05/20 01:20:31;;;;;;;4.03;1.90;;;;;;;;;;5024956;28;20050;-82
2023/05/20 01:22:58;;;;;;;13.07;2.30;;;;;;;;;;5010303;28;20067;-80
2023/05/20 01:25:25;;;;;;;6.80;2.30;;;;;;;;;;5032038;28;20039;-81
2023/05/20 01:27:51;;;;;;;6.87;2.10;;;;;;;;;;5013090;28;20046;-80
2023/05/20 01:30:18;;;;;;;6.03;3.50;;;;;;;;;;5012712;28;20111;-79
2023/05/20 01:32:48;;;;;;;2.63;1.70;;;;;;;;;;5011751;28;20025;-80
2023/05/20 01:35:15;;;;;;;3.67;1.40;;;;;;;;;;5011376;28;20068;-79
2023/05/20 01:37:42;;;;;;;2.70;2.00;;;;;;;;;;5024145;28;20038;-78
2023/05/20 01:40:08;;;;;;;3.40;1.97;;;;;;;;;;5014254;28;20041;-80
2023/05/20 01:42:35;;;;;;;4.90;2.20;;;;;;;;;;5030567;28;20022;-78
2023/05/20 01:45:01;;;;;;;8.87;2.90;;;;;;;;;;5030178;28;20014;-80
2023/05/20 01:47:27;;;;;;;3.83;2.07;;;;;;;;;;5028543;28;20062;-81
2023/05/20 01:49:53;;;;;;;3.83;2.20;;;;;;;;;;5014434;28;20037;-82
2023/05/20 01:52:22;;;;;;;5.90;2.67;;;;;;;;;;5028043;28;20030;-78
2023/05/20 01:54:55;;;;;;;6.03;2.70;;;;;;;;;;5025407;28;20026;-79
2023/05/20 01:57:21;;;;;;;6.18;2.63;;;;;;;;;;5014877;28;20049;-78
2023/05/20 01:59:48;;;;;;;5.63;2.10;;;;;;;;;;5013407;28;20029;-80
2023/05/20 02:02:14;;;;;;;3.50;2.17;;;;;;;;;;5014476;28;20085;-81
2023/05/20 02:04:42;;;;;;;8.07;2.00;;;;;;;;;;5028439;28;20025;-79
2023/05/20 02:07:11;;;;;;;4.37;2.30;;;;;;;;;;5021849;28;20181;-78
2023/05/20 02:09:37;;;;;;;4.53;2.30;;;;;;;;;;5013872;28;20076;-81
2023/05/20 02:12:03;;;;;;;4.30;2.00;;;;;;;;;;5028432;28;20014;-79
2023/05/20 02:14:31;;;;;;;8.63;1.93;;;;;;;;;;5029048;28;20042;-80
2023/05/20 02:16:57;;;;;;;2.73;1.67;;;;;;;;;;5029881;28;20026;-78
2023/05/20 02:19:26;;;;;;;3.03;2.00;;;;;;;;;;5024119;28;20034;-79
2023/05/20 02:21:52;;;;;;;4.23;1.83;;;;;;;;;;5029725;28;20034;-80
2023/05/20 02:24:19;;;;;;;5.50;2.40;;;;;;;;;;5013123;28;20038;-79
2023/05/20 02:26:48;;;;;;;7.03;2.27;;;;;;;;;;5009619;28;20018;-79
2023/05/20 02:29:19;;;;;;;8.27;2.57;;;;;;;;;;5011319;28;20037;-79
2023/05/20 02:31:45;;;;;;;6.03;2.50;;;;;;;;;;5009925;28;20018;-80
2023/05/20 02:34:11;;;;;;;5.47;2.40;;;;;;;;;;5027051;28;20046;-81
2023/05/20 02:36:37;;;;;;;6.60;2.20;;;;;;;;;;5030144;28;20018;-79
2023/05/20 02:39:03;;;;;;;4.83;2.03;;;;;;;;;;5011501;28;20022;-81
2023/05/20 02:41:29;;;;;;;3.10;1.50;;;;;;;;;;5027944;28;20049;-77
2023/05/20 02:43:55;;;;;;;7.33;3.33;;;;;;;;;;5027278;28;20049;-81
2023/05/20 02:46:21;;;;;;;5.97;1.83;;;;;;;;;;5028291;28;20112;-81
2023/05/20 02:48:47;;;;;;;3.90;2.13;;;;;;;;;;5012693;28;20049;-77
2023/05/20 02:51:15;;;;;;;6.00;1.93;;;;;;;;;;5011649;28;20029;-81
2023/05/20 02:53:42;;;;;;;6.20;2.37;;;;;;;;;;5025900;28;20018;-79
2023/05/20 02:56:12;;;;;;;3.97;2.20;;;;;;;;;;5028327;28;20030;-80
2023/05/20 02:58:38;;;;;;;6.03;2.20;;;;;;;;;;5026016;28;20034;-78
2023/05/20 03:01:04;;;;;;;3.27;2.10;;;;;;;;;;5025819;28;20166;-78
2023/05/20 03:03:30;;;;;;;7.37;2.60;;;;;;;;;;5010750;28;20014;-81
2023/05/20 03:05:57;;;;;;;5.57;2.27;;;;;;;;;;5026253;28;20022;-79
2023/05/20 03:08:23;;;;;;;3.83;2.10;;;;;;;;;;5028143;28;20184;-78
2023/05/20 03:10:49;;;;;;;5.33;2.47;;;;;;;;;;5012601;28;20034;-81
2023/05/20 03:13:15;;;;;;;9.63;2.30;;;;;;;;;;5029661;28;20037;-80
2023/05/20 03:15:44;;;;;;;6.67;3.13;;;;;;;;;;5020592;28;20025;-79
2023/05/20 03:18:11;;;;;;;5.00;2.17;;;;;;;;;;5026520;28;20010;-81
2023/05/20 03:20:37;;;;;;;3.10;2.47;;;;;;;;;;5013743;28;20094;-80
2023/05/20 03:23:07;;;;;;;7.40;2.10;;;;;;;;;;5009756;28;20042;-79
2023/05/20 03:25:33;;;;;;;4.03;2.30;;;;;;;;;;5023982;28;20049;-80
2023/05/20 03:28:02;;;;;;;4.10;2.30;;;;;;;;;;5023689;28;20041;-81
2023/05/20 03:30:31;;;;;;;7.07;2.30;;;;;;;;;;5011471;28;20045;-81
2023/05/20 03:32:58;;;;;;;3.57;2.13;;;;;;;;;;5028296;28;20038;-78
2023/05/20 03:35:24;;;;;;;7.20;2.63;;;;;;;;;;5013385;28;20014;-80
2023/05/20 03:37:53;;;;;;;5.47;2.13;;;;;;;;;;5015887;28;20038;-79
2023/05/20 03:40:19;;;;;;;4.63;2.10;;;;;;;;;;5023868;28;20044;-80
2023/05/20 03:42:46;;;;;;;7.70;2.70;;;;;;;;;;5029363;28;20028;-80
2023/05/20 03:45:15;;;;;;;5.87;2.43;;;;;;;;;;5027773;28;20145;-78
2023/05/20 03:47:41;;;;;;;7.33;2.80;;;;;;;;;;5031203;28;20006;-81
2023/05/20 03:50:07;;;;;;;2.87;2.03;;;;;;;;;;5017101;28;20030;-80
2023/05/20 03:52:33;;;;;;;4.37;2.27;;;;;;;;;;5027614;28;20026;-79
2023/05/20 03:54:59;;;;;;;4.60;2.30;;;;;;;;;;5029914;28;20046;-80
2023/05/20 03:57:25;;;;;;;4.03;3.03;;;;;;;;;;5029806;28;20025;-80
2023/05/20 03:59:51;;;;;;;3.90;2.33;;;;;;;;;;5029868;28;20048;-81
2023/05/20 04:02:17;;;;;;;4.57;2.20;;;;;;;;;;5029182;28;20022;-80
2023/05/20 04:04:46;;;;;;;5.00;2.20;;;;;;;;;;5013577;28;20125;-78
2023/05/20 04:07:12;;;;;;;7.50;3.70;;;;;;;;;;5016803;28;20033;-79
2023/05/20 04:09:45;;;;;;;7.80;3.90;;;;;;;;;;5015315;28;20046;-78
2023/05/20 04:12:12;;;;;;;3.87;2.37;;;;;;;;;;5026570;28;20061;-80
2023/05/20 04:14:41;;;;;;;8.03;3.97;;;;;;;;;;5015194;28;20089;-80
2023/05/20 04:17:15;;;;;;;6.77;2.33;;;;;;;;;;5014045;28;20022;-82
2023/05/20 04:19:41;;;;;;;10.47;2.80;;;;;;;;;;5019137;28;20014;-81
2023/05/20 04:22:07;;;;;;;11.23;3.70;;;;;;;;;;5024270;28;20025;-79
2023/05/20 04:24:33;;;;;;;6.40;3.07;;;;;;;;;;5013845;28;20046;-80
2023/05/20 04:26:59;;;;;;;12.67;4.17;;;;;;;;;;5015562;28;20025;-80
2023/05/20 04:29:27;;;;;;;7.70;3.00;;;;;;;;;;5013759;28;20075;-80
2023/05/20 04:31:57;;;;;;;9.67;2.57;;;;;;;;;;5017884;28;20014;-79
2023/05/20 04:34:25;;;;;;;4.83;2.03;;;;;;;;;;5015251;28;20034;-80
2023/05/20 04:36:56;;;;;;;6.97;3.20;;;;;;;;;;5018071;28;20044;-79
2023/05/20 04:39:22;;;;;;;8.40;3.77;;;;;;;;;;5014652;28;20021;-79
2023/05/20 04:41:48;;;;;;;5.00;2.50;;;;;;;;;;5014519;28;20094;-79
2023/05/20 04:44:14;;;;;;;3.87;2.70;;;;;;;;;;5031489;28;20029;-81
2023/05/20 04:46:43;;;;;;;9.97;2.80;;;;;;;;;;5028901;28;20006;-79
2023/05/20 04:49:09;;;;;;;5.93;3.40;;;;;;;;;;5029650;28;20026;-78
2023/05/20 04:51:35;;;;;;;2.93;2.27;;;;;;;;;;5016906;28;20553;-78
2023/05/20 04:54:01;;;;;;;5.97;3.17;;;;;;;;;;5022923;28;20018;-80
2023/05/20 04:56:27;;;;;;;6.50;2.87;;;;;;;;;;5014547;28;20030;-80
2023/05/20 04:58:55;;;;;;;5.73;2.77;;;;;;;;;;5016688;28;20037;-78
2023/05/20 05:01:21;;;;;;;11.63;2.70;;;;;;;;;;5014959;28;20086;-79
2023/05/20 05:03:50;;;;;;;6.83;2.17;;;;;;;;;;5011992;28;20034;-80
2023/05/20 05:06:16;;;;;;;5.97;2.63;;;;;;;;;;5027173;28;20010;-78
2023/05/20 05:08:45;;;;;;;4.53;2.00;;;;;;;;;;5014304;28;20042;-80
2023/05/20 05:11:11;;;;;;;4.40;2.50;;;;;;;;;;5032846;28;20044;-79
2023/05/20 05:13:37;;;;;;;4.67;2.60;;;;;;;;;;5014874;28;20026;-79
2023/05/20 05:16:06;;;;;;;5.03;2.80;;;;;;;;;;5028575;28;20110;-83
2023/05/20 05:18:32;;;;;;;4.53;2.03;;;;;;;;;;5012527;28;20030;-79
2023/05/20 05:21:01;;;;;;;6.90;2.50;;;;;;;;;;5014187;28;20102;-80
2023/05/20 05:23:27;;;;;;;6.73;2.73;;;;;;;;;;5011787;28;20038;-80
2023/05/20 05:25:53;;;;;;;7.33;2.43;;;;;;;;;;5011391;28;20030;-79
2023/05/20 05:28:19;;;;;;;5.00;2.60;;;;;;;;;;5026998;28;20022;-78
2023/05/20 05:30:45;;;;;;;6.73;3.00;;;;;;;;;;5024482;28;20022;-82
2023/05/20 05:33:13;;;;;;;6.40;2.67;;;;;;;;;;5025807;28;20030;-82
2023/05/20 05:35:40;;;;;;;7.13;3.00;;;;;;;;;;5013001;28;20021;-81
2023/05/20 05:38:12;;;;;;;7.83;2.60;;;;;;;;;;5018377;28;20041;-80
2023/05/20 05:40:38;;;;;;;8.17;2.60;;;;;;;;;;5017065;28;20026;-78
2023/05/20 05:43:04;;;;;;;4.03;2.70;;;;;;;;;;5018538;28;20018;-79
2023/05/20 05:45:30;;;;;;;5.13;2.70;;;;;;;;;;5014148;28;20028;-78
2023/05/20 05:47:56;;;;;;;5.57;2.80;;;;;;;;;;5015057;28;20060;-81
2023/05/20 05:50:22;;;;;;;5.77;2.87;;;;;;;;;;5017675;28;20038;-81
2023/05/20 05:52:48;;;;;;;4.70;2.70;;;;;;;;;;5026994;28;20101;-81
2023/05/20 05:55:24;;;;;;;4.67;2.90;;;;;;;;;;5024311;28;20058;-80
2023/05/20 05:57:52;;;;;;;4.67;3.33;;;;;;;;;;5029703;28;20038;-79
2023/05/20 06:00:23;;;;;;;3.77;2.50;;;;;;;;;;5029124;28;20033;-80
2023/05/20 06:03:03;;;;;;;4.93;3.10;;;;;;;;;;5013835;28;20044;-80
2023/05/20 06:05:30;;;;;;;6.57;2.83;;;;;;;;;;5023831;28;20037;-80
2023/05/20 06:08:04;;;;;;;5.40;2.70;;;;;;;;;;5023802;28;20033;-78
2023/05/20 06:10:48;;;;;;;6.67;3.10;;;;;;;;;;5013023;28;20045;-80
2023/05/20 06:13:20;;;;;;;6.57;3.37;;;;;;;;;;5029052;28;20034;-76
2023/05/20 06:15:52;;;;;;;5.80;3.63;;;;;;;;;;5012650;28;20022;-80
2023/05/20 06:18:18;;;;;;;6.80;3.17;;;;;;;;;;5030361;28;20038;-79
2023/05/20 06:20:46;;;;;;;4.47;3.17;;;;;;;;;;5027527;28;20031;-80
2023/05/20 06:23:12;;;;;;;5.40;3.73;;;;;;;;;;5028033;28;20045;-79
2023/05/20 06:25:38;;;;;;;5.43;3.87;;;;;;;;;;5026977;28;20041;-78
2023/05/20 06:28:07;;;;;;;6.67;3.87;;;;;;;;;;5011544;28;20212;-78
2023/05/20 06:30:36;;;;;;;4.47;3.17;;;;;;;;;;5010617;28;20041;-80
2023/05/20 06:33:02;;;;;;;6.70;3.50;;;;;;;;;;5011871;28;20086;-79
2023/05/20 06:35:37;;;;;;;5.83;2.90;;;;;;;;;;5013820;28;20057;-77
2023/05/20 06:38:04;;;;;;;5.60;2.77;;;;;;;;;;5025384;28;20017;-80
2023/05/20 06:40:30;;;;;;;4.60;3.13;;;;;;;;;;5027563;28;20034;-79
2023/05/20 06:43:01;;;;;;;4.23;3.37;;;;;;;;;;5026576;28;20021;-78
2023/05/20 06:45:27;;;;;;;5.37;3.30;;;;;;;;;;5013135;28;20014;-78
2023/05/20 06:47:56;;;;;;;5.93;3.60;;;;;;;;;;5014826;28;20045;-79
2023/05/20 06:50:22;;;;;;;5.10;3.20;;;;;;;;;;5011009;28;20046;-78
2023/05/20 06:52:53;;;;;;;6.53;4.30;;;;;;;;;;5010891;28;20090;-78
2023/05/20 06:55:19;;;;;;;6.33;4.03;;;;;;;;;;5027456;28;20033;-81
2023/05/20 06:57:47;;;;;;;4.63;3.93;;;;;;;;;;5015152;28;20030;-80
2023/05/20 07:00:14;;;;;;;4.33;3.27;;;;;;;;;;5009877;28;20022;-81
2023/05/20 07:02:40;;;;;;;10.03;3.80;;;;;;;;;;5018595;28;20022;-80
2023/05/20 07:05:09;;;;;;;8.20;3.05;;;;;;;;;;5012774;28;20026;-78
2023/05/20 07:07:35;;;;;;;5.25;3.08;;;;;;;;;;5008990;28;20026;-78
2023/05/20 07:10:04;;;;;;;4.83;2.97;;;;;;;;;;5025951;28;21588;-78
2023/05/20 07:12:30;;;;;;;6.07;3.10;;;;;;;;;;5012156;28;20042;-78
2023/05/20 07:15:00;;;;;;;5.32;3.28;;;;;;;;;;5025827;28;20037;-80
2023/05/20 07:17:28;;;;;;;7.75;5.40;;;;;;;;;;5024921;28;20029;-79
2023/05/20 07:19:56;;;;;;;9.23;5.18;;;;;;;;;;5011499;28;20041;-81
2023/05/20 07:22:29;;;;;;;7.55;6.25;;;;;;;;;;5013758;28;20018;-78
2023/05/20 07:24:55;;;;;;;5.00;3.33;;;;;;;;;;5029062;28;20081;-79
2023/05/20 07:27:21;;;;;;;9.77;3.85;;;;;;;;;;5029550;28;20045;-78
2023/05/20 07:29:47;;;;;;;6.15;3.47;;;;;;;;;;5023528;28;20036;-79
2023/05/20 07:32:13;;;;;;;5.43;3.55;;;;;;;;;;5030475;28;20030;-79
2023/05/20 07:34:39;;;;;;;7.38;4.20;;;;;;;;;;5015142;28;20078;-79
2023/05/20 07:37:05;;;;;;;10.55;4.38;;;;;;;;;;5029600;28;20038;-80
2023/05/20 07:39:35;;;;;;;7.72;4.22;;;;;;;;;;5017209;28;20042;-79
2023/05/20 07:42:08;;;;;;;7.38;4.05;;;;;;;;;;5030079;28;20085;-79
2023/05/20 07:44:34;;;;;;;6.05;3.30;;;;;;;;;;5028997;28;20014;-78
2023/05/20 07:47:01;;;;;;;9.40;3.45;;;;;;;;;;5014902;28;20033;-80
2023/05/20 07:49:27;;;;;;;9.05;3.35;;;;;;;;;;5019833;28;20106;-78
2023/05/20 07:51:53;;;;;;;11.45;3.53;;;;;;;;;;5014232;28;20033;-79
2023/05/20 07:54:19;;;;;;;3.53;2.50;;;;;;;;;;5030965;28;20045;-79
2023/05/20 07:56:45;;;;;;;7.00;2.90;;;;;;;;;;5014303;28;20018;-78
2023/05/20 07:59:11;;;;;;;5.88;3.25;;;;;;;;;;5013334;28;20014;-79
2023/05/20 08:01:38;;;;;;;4.20;2.90;;;;;;;;;;5031321;28;20037;-80
2023/05/20 08:04:04;;;;;;;6.20;3.38;;;;;;;;;;5027955;28;20066;-78
2023/05/20 08:06:31;;;;;;;3.88;2.70;;;;;;;;;;5029019;28;20038;-80
2023/05/20 08:08:57;;;;;;;5.00;3.00;;;;;;;;;;5012090;28;20053;-79
2023/05/20 08:11:26;;;;;;;4.38;2.80;;;;;;;;;;5011627;28;20041;-82
2023/05/20 08:13:52;;;;;;;4.30;2.30;;;;;;;;;;5027174;28;20049;-80
2023/05/20 08:16:18;;;;;;;4.45;2.75;;;;;;;;;;5025591;28;20034;-81
2023/05/20 08:18:44;;;;;;;5.57;2.97;;;;;;;;;;5023728;28;20135;-79
2023/05/20 08:21:10;;;;;;;5.50;3.28;;;;;;;;;;5026929;28;20022;-81
2023/05/20 08:23:36;;;;;;;6.70;3.50;;;;;;;;;;5026972;28;20029;-81
2023/05/20 08:26:02;;;;;;;4.90;3.28;;;;;;;;;;5028537;28;20025;-80
2023/05/20 08:28:29;;;;;;;3.90;3.10;;;;;;;;;;5025948;28;20073;-80
2023/05/20 08:31:04;;;;;;;6.68;2.53;;;;;;;;;;5021928;28;20031;-81
2023/05/20 08:36:44;;;;;;;4.88;2.83;;;;;;;;;;4978172;28;20095;-80
2023/05/20 08:39:10;;;;;;;3.75;2.45;;;;;;;;;;5003002;28;20098;-78
2023/05/20 08:41:37;;;;;;;5.75;2.42;;;;;;;;;;5021862;28;20242;-79
2023/05/20 08:44:06;;;;;;;6.05;3.17;;;;;;;;;;5026977;28;20260;-83
2023/05/20 08:46:33;;;;;;;8.02;3.15;;;;;;;;;;5011983;28;20045;-79
2023/05/20 08:49:02;;;;;;;3.22;2.70;;;;;;;;;;5013239;28;20038;-79
2023/05/20 08:51:36;;;;;;;4.72;2.60;;;;;;;;;;5013367;28;20014;-81
2023/05/20 08:54:02;;;;;;;4.35;3.00;;;;;;;;;;5012833;28;20033;-80
2023/05/20 08:56:28;;;;;;;3.70;2.60;;;;;;;;;;5022856;28;20042;-81
2023/05/20 08:58:55;;;;;;;3.47;2.60;;;;;;;;;;5023113;28;20032;-82
2023/05/20 09:01:29;;;;;;;4.47;2.88;;;;;;;;;;5028122;28;20031;-81
2023/05/20 09:03:59;;;;;;;5.22;3.45;;;;;;;;;;5026785;28;20097;-80
2023/05/20 09:06:28;;;;;;;8.32;2.63;;;;;;;;;;5026298;28;20084;-79
2023/05/20 09:08:57;;;;;;;4.22;2.85;;;;;;;;;;5012737;28;20048;-80
2023/05/20 09:11:23;;;;;;;4.80;2.85;;;;;;;;;;5028429;28;20022;-80
2023/05/20 09:13:50;;;;;;;6.05;2.83;;;;;;;;;;5012759;28;20018;-80
2023/05/20 09:16:16;;;;;;;5.28;3.33;;;;;;;;;;5025734;28;20046;-79
2023/05/20 09:18:42;;;;;;;4.95;3.15;;;;;;;;;;5028193;28;20138;-80
2023/05/20 09:21:10;;;;;;;4.72;2.75;;;;;;;;;;5009660;28;20074;-81
2023/05/20 09:23:37;;;;;;;5.97;3.65;;;;;;;;;;5022828;28;20006;-80
2023/05/20 09:26:03;;;;;;;5.38;3.10;;;;;;;;;;5027884;28;20045;-79
2023/05/20 09:28:29;;;;;;;7.88;3.03;;;;;;;;;;5008603;28;20046;-81
2023/05/20 09:31:01;;;;;;;6.60;3.60;;;;;;;;;;5011306;28;20023;-80
2023/05/20 09:33:33;;;;;;;4.50;3.08;;;;;;;;;;5027561;28;20034;-81
2023/05/20 09:36:03;;;;;;;6.85;3.00;;;;;;;;;;5022627;28;20026;-79
2023/05/20 09:38:34;;;;;;;7.20;3.28;;;;;;;;;;5028180;28;20093;-80
2023/05/20 09:41:02;;;;;;;5.45;3.20;;;;;;;;;;5026113;28;20045;-79
2023/05/20 09:43:31;;;;;;;6.38;2.92;;;;;;;;;;5024377;28;20152;-80
2023/05/20 09:45:59;;;;;;;6.13;3.72;;;;;;;;;;5013148;28;20077;-79
2023/05/20 09:48:26;;;;;;;6.65;2.90;;;;;;;;;;5010858;28;20022;-81
2023/05/20 09:50:52;;;;;;;6.60;2.78;;;;;;;;;;5009867;28;20068;-81
2023/05/20 09:53:22;;;;;;;5.25;2.92;;;;;;;;;;5012880;28;20010;-79
2023/05/20 09:55:48;;;;;;;4.47;2.75;;;;;;;;;;5011282;28;20018;-80
2023/05/20 09:58:15;;;;;;;8.38;3.70;;;;;;;;;;5012123;28;20036;-81
2023/05/20 10:00:41;;;;;;;6.22;3.22;;;;;;;;;;5025858;28;20162;-79
2023/05/20 10:03:07;;;;;;;7.95;3.28;;;;;;;;;;5025888;28;20037;-81
2023/05/20 10:05:38;;;;;;;5.18;3.70;;;;;;;;;;5012659;28;20037;-81
2023/05/20 10:08:25;;;;;;;7.18;3.33;;;;;;;;;;5029460;28;20033;-79
2023/05/20 10:10:58;;;;;;;7.07;3.53;;;;;;;;;;5027959;28;20026;-80
2023/05/20 10:13:27;;;;;;;9.05;3.00;;;;;;;;;;5024769;28;20037;-78
2023/05/20 10:15:53;;;;;;;6.45;4.40;;;;;;;;;;5025554;28;20022;-81
2023/05/20 10:18:27;;;;;;;9.32;4.60;;;;;;;;;;5012818;28;20065;-79
2023/05/20 10:20:53;;;;;;;6.57;3.55;;;;;;;;;;5028682;28;20034;-80
2023/05/20 10:23:30;;;;;;;6.18;2.60;;;;;;;;;;5018843;28;20056;-78
2023/05/20 10:25:57;;;;;;;4.22;2.78;;;;;;;;;;5013204;28;20033;-78
2023/05/20 10:28:30;;;;;;;9.60;2.90;;;;;;;;;;5022449;28;20027;-80
2023/05/20 10:30:59;;;;;;;8.35;3.25;;;;;;;;;;5021111;28;20064;-81
2023/05/20 10:33:28;;;;;;;8.38;2.70;;;;;;;;;;5008683;28;20018;-80
2023/05/20 10:36:01;;;;;;;5.43;2.72;;;;;;;;;;5027135;28;20033;-80
2023/05/20 10:38:30;;;;;;;6.07;3.17;;;;;;;;;;5026548;28;20034;-82
2023/05/20 10:41:07;;;;;;;6.07;2.97;;;;;;;;;;5028768;28;20030;-81
2023/05/20 10:43:37;;;;;;;8.15;2.97;;;;;;;;;;5010299;28;20010;-79
2023/05/20 10:46:03;;;;;;;5.07;3.47;;;;;;;;;;5024508;28;20030;-79
2023/05/20 10:48:31;;;;;;;6.78;2.55;;;;;;;;;;5009791;28;20049;-79
2023/05/20 10:50:58;;;;;;;5.07;2.80;;;;;;;;;;5009926;28;20041;-79
2023/05/20 10:53:27;;;;;;;7.65;3.38;;;;;;;;;;5022068;28;20034;-80
2023/05/20 10:55:54;;;;;;;7.82;3.42;;;;;;;;;;5032383;28;20022;-80
2023/05/20 10:58:26;;;;;;;4.05;2.97;;;;;;;;;;5031389;28;20021;-80
2023/05/20 11:00:53;;;;;;;6.88;3.20;;;;;;;;;;5033544;28;20044;-79
2023/05/20 11:03:26;;;;;;;3.78;2.42;;;;;;;;;;5019000;28;20034;-79
2023/05/20 11:05:52;;;;;;;7.43;3.17;;;;;;;;;;5017614;28;20034;-79
2023/05/20 11:08:18;;;;;;;6.03;3.10;;;;;;;;;;5027460;28;20026;-83
2023/05/20 11:10:51;;;;;;;4.22;2.40;;;;;;;;;;5033192;28;20030;-79
2023/05/20 11:13:19;;;;;;;6.55;3.00;;;;;;;;;;5032087;28;20010;-79
2023/05/20 11:15:48;;;;;;;4.90;2.90;;;;;;;;;;5018345;28;20031;-79
2023/05/20 11:18:14;;;;;;;6.78;2.97;;;;;;;;;;5032577;28;20022;-78
2023/05/20 11:20:41;;;;;;;8.43;3.15;;;;;;;;;;5015684;28;20082;-80
2023/05/20 11:23:14;;;;;;;4.53;3.10;;;;;;;;;;5014542;28;20022;-80
2023/05/20 11:25:40;;;;;;;8.73;4.50;;;;;;;;;;5026078;28;20053;-81
2023/05/20 11:28:23;;;;;;;;;;;;;;;;;;;;;
2023/05/20 11:30:53;;;;;;;9.05;3.45;;;;;;;;;;5034168;28;20061;-79
2023/05/20 11:33:19;;;;;;;6.18;3.78;;;;;;;;;;5016025;28;20029;-80
2023/05/20 11:35:45;;;;;;;6.93;4.00;;;;;;;;;;5015318;28;20026;-82
2023/05/20 11:38:11;;;;;;;7.80;3.70;;;;;;;;;;5016274;28;20050;-80
2023/05/20 11:40:42;;;;;;;6.75;3.70;;;;;;;;;;5030724;28;20033;-79
2023/05/20 11:43:10;;;;;;;6.78;3.92;;;;;;;;;;5032803;28;20034;-78
2023/05/20 11:45:43;;;;;;;6.82;3.83;;;;;;;;;;5016480;28;20064;-80
2023/05/20 11:48:14;;;;;;;6.88;3.58;;;;;;;;;;5033065;28;20065;-78
2023/05/20 11:50:44;;;;;;;7.28;4.38;;;;;;;;;;5017847;28;20033;-82
2023/05/20 11:53:13;;;;;;;6.55;3.65;;;;;;;;;;5017720;28;20022;-79
2023/05/20 11:55:46;;;;;;;6.97;3.78;;;;;;;;;;5031159;28;20014;-81
2023/05/20 11:58:12;;;;;;;;;;;;;;;;;;5034303;28;20048;-80
2023/05/20 12:00:38;;;;;;;7.38;3.90;;;;;;;;;;5016139;28;19921;-79
2023/05/20 12:03:04;;;;;;;4.63;3.70;;;;;;;;;;5021374;28;20018;-79
2023/05/20 12:05:30;;;;;;;7.28;4.05;;;;;;;;;;5016595;28;20032;-81
2023/05/20 12:07:56;;;;;;;10.60;4.43;;;;;;;;;;5028012;28;20022;-79
2023/05/20 12:10:22;;;;;;;6.38;4.05;;;;;;;;;;5013251;28;20029;-81
2023/05/20 12:12:48;;;;;;;6.47;4.13;;;;;;;;;;5031487;28;20010;-78
2023/05/20 12:15:14;;;;;;;9.00;4.63;;;;;;;;;;5028018;28;20018;-82
2023/05/20 12:17:56;;;;;;;11.18;4.07;;;;;;;;;;5027896;28;20133;-80
2023/05/20 12:20:23;;;;;;;8.10;4.20;;;;;;;;;;5014235;28;20037;-79
2023/05/20 12:22:58;;;;;;;7.05;4.38;;;;;;;;;;5012102;28;20014;-79
2023/05/20 12:25:24;;;;;;;5.97;3.78;;;;;;;;;;5027150;28;20058;-79
2023/05/20 12:27:51;;;;;;;6.47;3.78;;;;;;;;;;5028260;28;20373;-79
2023/05/20 12:30:17;;;;;;;7.22;4.13;;;;;;;;;;5012520;28;20057;-79
2023/05/20 12:32:44;;;;;;;6.30;4.25;;;;;;;;;;5023466;28;20018;-80
2023/05/20 12:35:10;;;;;;;12.27;4.43;;;;;;;;;;5028311;28;20025;-78
2023/05/20 12:37:40;;;;;;;5.88;4.30;;;;;;;;;;5022235;28;20026;-79
2023/05/20 12:40:07;;;;;;;4.30;3.90;;;;;;;;;;5020250;28;20010;-80
2023/05/20 12:42:40;;;;;;;5.65;3.47;;;;;;;;;;5025376;28;20030;-79
2023/05/20 12:45:06;;;;;;;4.88;3.28;;;;;;;;;;5025898;28;20357;-79
2023/05/20 12:47:33;;;;;;;5.40;3.40;;;;;;;;;;5019133;28;20298;-84
2023/05/20 12:49:59;;;;;;;5.85;4.00;;;;;;;;;;5000794;28;20030;-77
2023/05/20 12:52:25;;;;;;;6.80;4.07;;;;;;;;;;5026805;28;20037;-79
2023/05/20 12:54:54;;;;;;;9.07;4.53;;;;;;;;;;5025313;28;20052;-79
2023/05/20 12:57:20;;;;;;;5.43;3.33;;;;;;;;;;5008892;28;20026;-78
2023/05/20 12:59:46;;;;;;;5.55;3.65;;;;;;;;;;5024698;28;20031;-80
2023/05/20 13:02:12;;;;;;;6.75;3.90;;;;;;;;;;5017643;28;20053;-78
2023/05/20 13:04:38;;;;;;;7.68;3.80;;;;;;;;;;5010549;28;20022;-78
2023/05/20 13:07:05;;;;;;;4.20;3.50;;;;;;;;;;5020299;28;20490;-78
2023/05/20 13:09:36;;;;;;;7.38;3.92;;;;;;;;;;5022997;28;20029;-79
2023/05/20 13:12:02;;;;;;;9.63;3.80;;;;;;;;;;5022865;28;20026;-78
2023/05/20 13:14:29;;;;;;;4.85;3.30;;;;;;;;;;5023599;28;20329;-79
2023/05/20 13:16:55;;;;;;;10.35;3.83;;;;;;;;;;5026583;28;20018;-78
2023/05/20 13:19:22;;;;;;;4.53;3.33;;;;;;;;;;5009251;28;20069;-77
2023/05/20 13:21:49;;;;;;;4.85;3.13;;;;;;;;;;5023719;28;20033;-77
2023/05/20 13:24:15;;;;;;;5.30;3.45;;;;;;;;;;5013030;28;20022;-77
2023/05/20 13:26:41;;;;;;;19.25;3.40;;;;;;;;;;5025013;28;20022;-76
2023/05/20 13:29:07;;;;;;;4.03;3.00;;;;;;;;;;5025429;28;20038;-76
2023/05/20 13:31:33;;;;;;;3.15;2.67;;;;;;;;;;5023389;28;20033;-75
2023/05/20 13:33:59;;;;;;;12.13;2.78;;;;;;;;;;5022103;28;20412;-78
2023/05/20 13:36:26;;;;;;;14.55;3.47;;;;;;;;;;5012736;28;20029;-82
2023/05/20 13:38:52;;;;;;;10.63;3.67;;;;;;;;;;5022458;28;20044;-77
2023/05/20 13:41:18;;;;;;;6.75;3.50;;;;;;;;;;5021744;28;20036;-77
2023/05/20 13:43:44;;;;;;;4.38;3.00;;;;;;;;;;5023746;28;20488;-75
2023/05/20 13:46:10;;;;;;;11.65;3.50;;;;;;;;;;5024213;28;20021;-74
2023/05/20 13:48:36;;;;;;;6.50;3.05;;;;;;;;;;5020300;28;20105;-77
2023/05/20 13:51:02;;;;;;;8.27;3.03;;;;;;;;;;5012751;28;20033;-79
2023/05/20 13:53:28;;;;;;;3.83;3.20;;;;;;;;;;5005385;28;20038;-81
2023/05/20 13:55:54;;;;;;;5.47;3.63;;;;;;;;;;5005068;28;20038;-79
2023/05/20 13:58:20;;;;;;;11.52;3.00;;;;;;;;;;4997364;28;20029;-85
2023/05/20 14:00:46;;;;;;;4.43;3.60;;;;;;;;;;5009890;28;20436;-85
2023/05/20 14:03:12;;;;;;;7.07;3.55;;;;;;;;;;4990795;28;20080;-87
2023/05/20 14:05:39;;;;;;;4.43;3.00;;;;;;;;;;4989468;28;20533;-91
2023/05/20 14:08:05;;;;;;;4.03;3.40;;;;;;;;;;4988291;28;20022;-87
2023/05/20 14:10:31;;;;;;;3.95;3.05;;;;;;;;;;5004614;28;20037;-90
2023/05/20 14:12:59;;;;;;;5.85;3.10;;;;;;;;;;4992033;28;20030;-88
2023/05/20 14:15:27;;;;;;;8.32;3.35;;;;;;;;;;5005276;28;20018;-84
2023/05/20 14:17:58;;;;;;;6.95;3.13;;;;;;;;;;4997577;28;20084;-83
2023/05/20 14:20:24;;;;;;;4.05;3.13;;;;;;;;;;5017927;28;20026;-77
2023/05/20 14:22:53;;;;;;;9.63;3.92;;;;;;;;;;5016364;28;20052;-87
2023/05/20 14:25:19;;;;;;;6.20;3.58;;;;;;;;;;5015712;28;20030;-81
2023/05/20 14:27:46;;;;;;;5.40;4.05;;;;;;;;;;5022968;28;20010;-78
2023/05/20 14:30:15;;;;;;;9.80;4.20;;;;;;;;;;5022021;28;20034;-78
2023/05/20 14:32:41;;;;;;;4.38;3.40;;;;;;;;;;5007477;28;20072;-80
2023/05/20 14:35:07;;;;;;;9.90;4.10;;;;;;;;;;5008152;28;20106;-79
2023/05/20 14:37:33;;;;;;;4.68;3.47;;;;;;;;;;5019347;28;20021;-79
2023/05/20 14:40:02;;;;;;;4.32;3.60;;;;;;;;;;5006422;28;20069;-80
2023/05/20 14:42:27;;;;;;;4.85;4.22;;;21.50;99.90;;;;;;5023427;28;20041;-78
2023/05/20 14:44:53;;;;;;;5.82;3.72;;;;;;;;;;5006414;28;20144;-77
2023/05/20 14:47:20;;;;;;;6.32;4.10;;;20.60;99.90;;;;;;5022856;28;20034;-77
2023/05/20 14:49:48;;;;;;;6.55;4.22;;;20.00;99.90;;;;;;5006538;28;20040;-76